LSZH Airport Information

Runway Information
Runway 10 Length 8202 ft width 197 ft
Elevation 1391 ft Threshold ft Heading 96
Runway 28 Length 8202 ft Width 197 ft
Elevation 1416 ft Threshold ft Heading 276
Runway 14 Length 10827 ft width 197 ft
Elevation 1402 ft Threshold 490 ft Heading 137
Runway 32 Length 10827 ft Width 197 ft
Elevation 1402 ft Threshold ft Heading 317
Runway 16 Length 12139 ft width 197 ft
Elevation 1390 ft Threshold ft Heading 155
Runway 34 Length 12139 ft Width 197 ft
Elevation 1388 ft Threshold 1541 ft Heading 335
Airport Frequencies
Type APP Name APP Frequency 118 MHZ
Type ATIS Name ATIS Frequency 125.725 MHZ
Type CLD Name CLNC DEL Frequency 121.8 MHZ
Type DEP Name DEP Frequency 125.95 MHZ
Type GND Name GND Frequency 121.9 MHZ
Type RMP Name APRON Frequency 121.75 MHZ
Type TCA Name TERMINAL Frequency 127.75 MHZ
Type TWR Name TWR Frequency 118.1 MHZ
Airport Navaids
Type VOR-DME Name Kloten Frequency 114850 KHZ
Type VOR-DME Name Zurich East Frequency 110050 KHZ
Airport Weather Information & NOTAM
ADDS - METARS form results

(0316 UTC 29 June 2022)
Data provider http://aviationweather.gov/metar/data/
 
METAR text: LSZH 290250Z AUTO 17005KT 9999 SCT016 SCT021 16/15 Q1016 NOSIG
Conditions at: LSZH (ZURICH-KLOTEN (A, CH) observed 0250 UTC 29 June 2022
Temperature: 16.0°C (61°F)
Dewpoint: 15.0°C (59°F) [RH = 94%]
Pressure (altimeter): 30.00 inches Hg (1016.0 mb)
Winds: from the S (170 degrees) at 6 MPH (5 knots; 2.6 m/s)
Visibility: 6 or more miles (10+ km)
Ceiling: at least 12,000 feet AGL
Clouds: scattered clouds at 1600 feet AGL
scattered clouds at 2100 feet AGL
Weather: no significant weather observed at this time

METAR text: LSZH 290220Z AUTO VRB03KT 9999 FEW017 17/15 Q1016 NOSIG
Conditions at: LSZH (ZURICH-KLOTEN (A, CH) observed 0220 UTC 29 June 2022
Temperature: 17.0°C (63°F)
Dewpoint: 15.0°C (59°F) [RH = 88%]
Pressure (altimeter): 30.00 inches Hg (1016.0 mb)
Winds: variable direction winds at 3 MPH (3 knots; 1.5 m/s)
Visibility: 6 or more miles (10+ km)
Ceiling: at least 12,000 feet AGL
Clouds: few clouds at 1700 feet AGL
Weather: no significant weather observed at this time

Forecast for: LSZH (ZURICH-KLOTEN (A, CH)
Text: TAF LSZH 290225Z 2903/3009 VRB02KT 9999 FEW025 TX27/2914Z TN15/2904Z TN14/3004Z
Forecast period: 0300 to 1500 UTC 29 June 2022
Forecast type: FROM: standard forecast or significant change
Winds: variable direction winds at 2 MPH (2 knots; 1.0 m/s)
Visibility: 6 or more miles (10+ km)
Ceiling: at least 12,000 feet AGL
Clouds: few clouds at 2500 feet AGL
Weather: no significant weather forecast for this period
Text: BECMG 2915/2918 CAVOK
Forecast period: 1500 UTC 29 June 2022 to 0900 UTC 30 June 2022
Forecast type: BECOMING: Conditions expected to become as follows by 1800 UTC 29 June 2022
Winds: variable direction winds at 2 MPH (2 knots; 1.0 m/s)
Visibility: 6 or more miles (10+ km)
Ceiling: unknown
Clouds: missing
Weather: NSW  (no significant weather)